Seabourn Spirit — C6FR4 — position and weather

sailwx.info

Track history (hours):
 
Tides and Currents Weather Stations Pressure Air Temp Water Temp Dewpoint Dewpoint Depression Visibility Wind Speed Wind Dir Waves Ship Positions

Seabourn Spirit

Operator: Cunard Seabourn

Last reported at 2016-Nov-11 19:34 UTC. Time now 2017-Mar-30 22:48 UTC.
Position N 38°29' W 009°35'.
Warning: this ship's position is months out of date.

Length 133 m; draft 5.5 m.

Type: Ship. MMSI: 311083000.

Date/timePositionNaut miles runAvg speedWind from/ knotsBaromVisibWave heightAir tempDewpointWater temp
2016-Nov-11 19:34N 38°29' W 009°35'26 6.4
2016-Nov-11 15:28N 38°43' W 009°07'0 0.0
2016-Nov-11 14:27N 38°43' W 009°07'0 0.0
2016-Nov-11 10:27N 38°43' W 009°07'0 0.0
2016-Nov-11 09:31N 38°43' W 009°07'0 0.0
2016-Nov-11 06:31N 38°43' W 009°07'0 0.0
2016-Nov-11 05:28N 38°43' W 009°07'0 0.0
2016-Nov-11 04:31N 38°43' W 009°07'0 0.0
2016-Nov-11 03:33N 38°43' W 009°07'0 0.0
2016-Nov-11 02:34N 38°43' W 009°07'0 0.0
2016-Nov-11 01:33N 38°43' W 009°07'0 0.0
2016-Nov-11 00:19N 38°43' W 009°07'0 0.0
2016-Nov-10 23:32N 38°43' W 009°07'0 0.0
2016-Nov-10 22:31N 38°43' W 009°07'0 0.0
2016-Nov-10 20:28N 38°43' W 009°07'0 0.0
2016-Nov-10 18:33N 38°43' W 009°07'0 0.0
2016-Nov-10 16:33N 38°43' W 009°07'0 0.0
2016-Nov-10 15:23N 38°43' W 009°07'0 0.0
2016-Nov-10 11:09N 38°43' W 009°07'0 0.0
2016-Nov-10 10:26N 38°43' W 009°07'0 0.0
2016-Nov-10 09:30N 38°43' W 009°07'0 0.0
2016-Nov-10 08:28N 38°43' W 009°07'0 0.0
2016-Nov-10 07:28N 38°43' W 009°07'0 0.4
2016-Nov-10 06:33N 38°42' W 009°07'9 9.1
2016-Nov-10 05:33N 38°40' W 009°18'1111.0
2016-Nov-10 04:33N 38°30' W 009°25'93 6.9
2016-Nov-09 15:06N 37°08' W 008°32'0 0.0
2016-Nov-09 08:30N 37°08' W 008°32'0 0.1
2016-Nov-09 07:33N 37°08' W 008°32'14 7.1
2016-Nov-09 05:33N 36°59' W 008°17'9 9.1
2016-Nov-09 04:33N 36°55' W 008°07'135 4.1
2016-Nov-07 19:31N 35°59' W 005°35'13 6.2
2016-Nov-07 17:30N 36°07' W 005°23'2 0.9
2016-Nov-07 15:22N 36°09' W 005°22'0 0.0
2016-Nov-07 14:28N 36°09' W 005°22'0 0.0
2016-Nov-07 13:31N 36°09' W 005°22'0 0.0
2016-Nov-07 09:06N 36°09' W 005°22'0 0.0
2016-Nov-07 08:27N 36°09' W 005°22'0 0.0
2016-Nov-07 07:30N 36°09' W 005°22'0 0.3
2016-Nov-07 06:33N 36°09' W 005°22'4 4.4
2016-Nov-07 05:33N 36°05' W 005°19'  
2016-Nov-04 12:31N 37°36' E 000°04'  
Track history (hours):
 
Tides and Currents Weather Stations Pressure Air Temp Water Temp Dewpoint Dewpoint Depression Visibility Wind Speed Wind Dir Waves Ship Positions

Seabourn Spirit

Operator: Cunard Seabourn

Last reported at 2016-Nov-11 19:34 UTC. Time now 2017-Mar-30 22:48 UTC.
Position N 38°29' W 009°35'.
Warning: this ship's position is months out of date.

Length 133 m; draft 5.5 m.

Type: Ship. MMSI: 311083000.

Date/timePositionNaut miles runAvg speedWind from/ knotsBaromVisibWave heightAir tempDewpointWater temp
2016-Nov-11 19:34N 38°29' W 009°35'26 6.4
2016-Nov-11 15:28N 38°43' W 009°07'0 0.0
2016-Nov-11 14:27N 38°43' W 009°07'0 0.0
2016-Nov-11 10:27N 38°43' W 009°07'0 0.0
2016-Nov-11 09:31N 38°43' W 009°07'0 0.0
2016-Nov-11 06:31N 38°43' W 009°07'0 0.0
2016-Nov-11 05:28N 38°43' W 009°07'0 0.0
2016-Nov-11 04:31N 38°43' W 009°07'0 0.0
2016-Nov-11 03:33N 38°43' W 009°07'0 0.0
2016-Nov-11 02:34N 38°43' W 009°07'0 0.0
2016-Nov-11 01:33N 38°43' W 009°07'0 0.0
2016-Nov-11 00:19N 38°43' W 009°07'0 0.0
2016-Nov-10 23:32N 38°43' W 009°07'0 0.0
2016-Nov-10 22:31N 38°43' W 009°07'0 0.0
2016-Nov-10 20:28N 38°43' W 009°07'0 0.0
2016-Nov-10 18:33N 38°43' W 009°07'0 0.0
2016-Nov-10 16:33N 38°43' W 009°07'0 0.0
2016-Nov-10 15:23N 38°43' W 009°07'0 0.0
2016-Nov-10 11:09N 38°43' W 009°07'0 0.0
2016-Nov-10 10:26N 38°43' W 009°07'0 0.0
2016-Nov-10 09:30N 38°43' W 009°07'0 0.0
2016-Nov-10 08:28N 38°43' W 009°07'0 0.0
2016-Nov-10 07:28N 38°43' W 009°07'0 0.4
2016-Nov-10 06:33N 38°42' W 009°07'9 9.1
2016-Nov-10 05:33N 38°40' W 009°18'1111.0
2016-Nov-10 04:33N 38°30' W 009°25'93 6.9
2016-Nov-09 15:06N 37°08' W 008°32'0 0.0
2016-Nov-09 08:30N 37°08' W 008°32'0 0.1
2016-Nov-09 07:33N 37°08' W 008°32'14 7.1
2016-Nov-09 05:33N 36°59' W 008°17'9 9.1
2016-Nov-09 04:33N 36°55' W 008°07'135 4.1
2016-Nov-07 19:31N 35°59' W 005°35'13 6.2
2016-Nov-07 17:30N 36°07' W 005°23'2 0.9
2016-Nov-07 15:22N 36°09' W 005°22'0 0.0
2016-Nov-07 14:28N 36°09' W 005°22'0 0.0
2016-Nov-07 13:31N 36°09' W 005°22'0 0.0
2016-Nov-07 09:06N 36°09' W 005°22'0 0.0
2016-Nov-07 08:27N 36°09' W 005°22'0 0.0
2016-Nov-07 07:30N 36°09' W 005°22'0 0.3
2016-Nov-07 06:33N 36°09' W 005°22'4 4.4
2016-Nov-07 05:33N 36°05' W 005°19'  
2016-Nov-04 12:31N 37°36' E 000°04'  

Dump ship's entire track history